createdAt,value
2022-12-04T00:01:44.111Z,-1.13
2022-12-04T00:04:11.053Z,-1.35
2022-12-04T00:06:37.893Z,-1.37
2022-12-04T00:09:08.888Z,-1.40
2022-12-04T00:11:41.934Z,-1.36
2022-12-04T00:14:09.061Z,-1.23
2022-12-04T00:16:36.024Z,-1.20
2022-12-04T00:19:02.986Z,-1.30
2022-12-04T00:21:30.658Z,-1.13
2022-12-04T00:23:57.462Z,-1.15
2022-12-04T00:26:27.022Z,-1.19
2022-12-04T00:28:54.340Z,-1.20
2022-12-04T00:31:23.918Z,-1.11
2022-12-04T00:33:51.222Z,-1.18
2022-12-04T00:36:20.463Z,-1.17
2022-12-04T00:38:47.693Z,-1.18
2022-12-04T00:41:17.401Z,-1.18
2022-12-04T00:43:46.000Z,-1.14
2022-12-04T00:46:12.951Z,-1.20
2022-12-04T00:48:40.001Z,-1.11
2022-12-04T00:51:12.769Z,-1.21
2022-12-04T00:53:39.989Z,-1.10
2022-12-04T00:56:15.187Z,-1.15
2022-12-04T00:58:44.527Z,-1.07
2022-12-04T01:01:14.683Z,-1.20
2022-12-04T01:03:44.340Z,-1.33
2022-12-04T01:06:24.606Z,-1.13
2022-12-04T01:08:53.840Z,-1.29
2022-12-04T01:11:21.435Z,-1.08
2022-12-04T01:13:48.405Z,-1.22
2022-12-04T01:16:17.142Z,-1.10
2022-12-04T01:18:44.026Z,-1.02
2022-12-04T01:21:12.500Z,-0.99
2022-12-04T01:23:39.395Z,-0.94
2022-12-04T01:26:06.322Z,-1.13
2022-12-04T01:28:33.326Z,-1.05
2022-12-04T01:31:06.532Z,-1.20
2022-12-04T01:33:34.425Z,-1.05
2022-12-04T01:36:02.582Z,-1.08
2022-12-04T01:38:29.992Z,-1.00
2022-12-04T01:40:57.459Z,-0.97
2022-12-04T01:43:25.204Z,-1.16
2022-12-04T01:45:59.962Z,-1.07
2022-12-04T01:48:28.461Z,-1.00
2022-12-04T01:51:01.203Z,-0.98
2022-12-04T01:53:29.670Z,-1.13
2022-12-04T01:55:56.663Z,-1.03
2022-12-04T01:58:28.631Z,-1.08
2022-12-04T02:01:00.779Z,-1.01
2022-12-04T02:03:31.089Z,-1.01
2022-12-04T02:05:58.774Z,-1.14
2022-12-04T02:08:26.399Z,-1.00
2022-12-04T02:11:07.640Z,-0.99
2022-12-04T02:14:03.385Z,-1.06
2022-12-04T02:16:41.816Z,-1.11
2022-12-04T02:19:34.548Z,-1.16
2022-12-04T02:22:05.004Z,-1.08
2022-12-04T02:24:50.137Z,-1.03
2022-12-04T02:27:31.368Z,-1.11
2022-12-04T02:30:03.818Z,-1.14
2022-12-04T02:32:38.628Z,-1.07
2022-12-04T02:35:14.019Z,-0.92
2022-12-04T02:37:50.588Z,-0.98
2022-12-04T02:40:40.004Z,-0.97
2022-12-04T02:43:12.694Z,-1.14
2022-12-04T02:45:48.843Z,-1.08
2022-12-04T02:48:19.647Z,-0.99
2022-12-04T02:50:49.820Z,-1.03
2022-12-04T02:53:20.006Z,-1.18
2022-12-04T02:55:54.377Z,-0.92
2022-12-04T02:58:22.089Z,-0.96
2022-12-04T03:00:49.102Z,-1.05
2022-12-04T03:03:23.398Z,-0.83
2022-12-04T03:05:50.066Z,-0.92
2022-12-04T03:08:20.461Z,-0.93
2022-12-04T03:10:51.669Z,-0.94
2022-12-04T03:13:46.492Z,-1.02
2022-12-04T03:16:17.943Z,-0.89
2022-12-04T03:19:03.824Z,-0.83
2022-12-04T03:21:35.897Z,-0.99
2022-12-04T03:24:36.865Z,-0.88
2022-12-04T03:27:31.176Z,-0.83
2022-12-04T03:30:04.236Z,-0.81
2022-12-04T03:32:41.904Z,-1.00
2022-12-04T03:35:17.504Z,-0.88
2022-12-04T03:37:55.629Z,-0.88
2022-12-04T03:40:57.831Z,-0.69
2022-12-04T03:43:37.360Z,-0.73
2022-12-04T03:46:15.860Z,-0.82
2022-12-04T03:48:46.993Z,-0.72
2022-12-04T03:51:18.295Z,-0.94
2022-12-04T03:53:54.610Z,-0.82
2022-12-04T03:56:24.902Z,-0.76
2022-12-04T03:58:55.393Z,-0.79
2022-12-04T04:01:25.107Z,-0.91
2022-12-04T04:03:53.691Z,-0.76
2022-12-04T04:06:37.421Z,-0.92
2022-12-04T04:09:11.025Z,-0.81
2022-12-04T04:11:47.566Z,-0.77
2022-12-04T04:14:37.230Z,-0.68
2022-12-04T04:17:26.352Z,-0.73
2022-12-04T04:20:39.740Z,-0.62
2022-12-04T04:23:28.326Z,-0.85
2022-12-04T04:25:57.356Z,-0.76
2022-12-04T04:28:32.605Z,-0.79
2022-12-04T04:31:07.291Z,-0.83
2022-12-04T04:33:36.618Z,-0.72
2022-12-04T04:36:10.069Z,-0.80
2022-12-04T04:38:45.352Z,-0.79
2022-12-04T04:41:20.947Z,-0.65
2022-12-04T04:44:03.530Z,-0.69
2022-12-04T04:46:33.834Z,-0.73
2022-12-04T04:49:03.543Z,-0.74
2022-12-04T04:51:31.509Z,-0.72
2022-12-04T04:54:00.089Z,-0.73
2022-12-04T04:56:27.101Z,-0.64
2022-12-04T04:58:53.888Z,-0.66
2022-12-04T05:01:23.503Z,-0.61
2022-12-04T05:03:50.525Z,-0.67
2022-12-04T05:06:17.409Z,-0.76
2022-12-04T05:08:44.397Z,-0.82
2022-12-04T05:11:15.249Z,-0.60
2022-12-04T05:13:42.587Z,-0.51
2022-12-04T05:16:12.831Z,-0.47
2022-12-04T05:18:40.071Z,-0.73
2022-12-04T05:21:18.518Z,-0.68
2022-12-04T05:23:45.329Z,-0.79
2022-12-04T05:26:12.256Z,-0.68
2022-12-04T05:28:41.034Z,-0.64
2022-12-04T05:31:08.016Z,-0.66
2022-12-04T05:33:34.990Z,-0.65
2022-12-04T05:36:07.365Z,-0.76
2022-12-04T05:38:34.515Z,-0.53
2022-12-04T05:41:02.495Z,-0.50
2022-12-04T05:43:29.791Z,-0.49
2022-12-04T05:46:07.485Z,-0.62
2022-12-04T05:48:35.689Z,-0.82
2022-12-04T05:51:10.224Z,-0.64
2022-12-04T05:53:37.484Z,-0.68
2022-12-04T05:56:06.400Z,-0.55
2022-12-04T05:58:37.397Z,-0.63
2022-12-04T06:01:13.440Z,-0.58
2022-12-04T06:03:40.515Z,-0.43
2022-12-04T06:06:22.830Z,-0.54
2022-12-04T06:08:54.762Z,-0.51
2022-12-04T06:11:30.951Z,-0.49
2022-12-04T06:13:59.596Z,-0.36
2022-12-04T06:16:36.438Z,-0.53
2022-12-04T06:19:15.689Z,-0.59
2022-12-04T06:21:44.119Z,-0.42
2022-12-04T06:24:15.410Z,-0.49
2022-12-04T06:27:11.154Z,-0.42
2022-12-04T06:29:33.652Z,-0.47
2022-12-04T06:32:01.032Z,-0.51
2022-12-04T06:34:28.279Z,-0.36
2022-12-04T06:36:55.191Z,-0.48
2022-12-04T06:39:22.194Z,-0.46
2022-12-04T06:41:49.109Z,-0.45
2022-12-04T06:44:16.113Z,-0.35
2022-12-04T06:46:46.900Z,-0.42
2022-12-04T06:49:14.641Z,-0.42
2022-12-04T06:51:41.852Z,-0.33
2022-12-04T06:54:10.076Z,-0.40
2022-12-04T06:56:37.148Z,-0.44
2022-12-04T06:59:05.002Z,-0.52
2022-12-04T07:01:33.921Z,-0.57
2022-12-04T07:04:03.475Z,-0.64
2022-12-04T07:06:33.092Z,-0.46
2022-12-04T07:09:03.498Z,-0.44
2022-12-04T07:11:31.109Z,-0.44
2022-12-04T07:13:58.139Z,-0.41
2022-12-04T07:16:26.825Z,-0.40
2022-12-04T07:18:54.174Z,-0.51
2022-12-04T07:21:24.389Z,-0.33
2022-12-04T07:23:53.062Z,-0.49
2022-12-04T07:26:20.490Z,-0.53
2022-12-04T07:28:47.903Z,-0.36
2022-12-04T07:31:17.862Z,-0.47
2022-12-04T07:33:47.120Z,-0.50
2022-12-04T07:36:19.445Z,-0.30
2022-12-04T07:38:46.948Z,-0.29
2022-12-04T07:41:14.548Z,-0.28
2022-12-04T07:43:41.645Z,-0.23
2022-12-04T07:46:13.445Z,-0.15
2022-12-04T07:48:40.780Z,-0.39
2022-12-04T07:51:10.298Z,-0.23
2022-12-04T07:53:37.785Z,-0.33
2022-12-04T07:56:06.019Z,-0.18
2022-12-04T07:58:33.510Z,-0.24
2022-12-04T08:01:08.802Z,-0.23
2022-12-04T08:03:35.929Z,-0.31
2022-12-04T08:06:04.673Z,-0.33
2022-12-04T08:08:32.277Z,-0.11
2022-12-04T08:10:59.894Z,-0.05
2022-12-04T08:13:26.896Z,-0.06
2022-12-04T08:15:53.886Z,-0.22
2022-12-04T08:18:20.942Z,-0.15
2022-12-04T08:20:47.923Z,-0.22
2022-12-04T08:23:14.842Z,-0.19
2022-12-04T08:25:41.926Z,-0.11
2022-12-04T08:28:09.061Z,-0.19
2022-12-04T08:30:36.442Z,-0.30
2022-12-04T08:33:03.458Z,-0.10
2022-12-04T08:35:30.493Z,-0.21
2022-12-04T08:37:57.473Z,-0.19
2022-12-04T08:40:24.481Z,-0.20
2022-12-04T08:42:51.516Z,-0.05
2022-12-04T08:45:18.404Z,0.02
2022-12-04T08:47:49.299Z,0.06
2022-12-04T08:50:19.125Z,-0.04
2022-12-04T08:52:45.947Z,-0.06
2022-12-04T08:55:12.879Z,0.05
2022-12-04T08:57:39.756Z,0.09
2022-12-04T09:00:07.296Z,0.10
2022-12-04T09:02:34.160Z,0.08
2022-12-04T09:05:01.141Z,-0.06
2022-12-04T09:07:28.107Z,0.03
2022-12-04T09:09:55.270Z,0.03
2022-12-04T09:12:22.344Z,0.01
2022-12-04T09:14:49.379Z,0.07
2022-12-04T09:17:16.277Z,0.13
2022-12-04T09:19:43.685Z,0.26
2022-12-04T09:22:11.181Z,0.19
2022-12-04T09:24:38.219Z,0.19
2022-12-04T09:27:07.626Z,0.13
2022-12-04T09:29:38.326Z,0.23
2022-12-04T09:32:07.935Z,0.26
2022-12-04T09:34:36.138Z,0.24
2022-12-04T09:37:03.463Z,0.33
2022-12-04T09:39:30.556Z,0.17
2022-12-04T09:42:08.483Z,0.25
2022-12-04T09:44:40.976Z,0.30
2022-12-04T09:47:20.090Z,0.33
2022-12-04T09:49:51.099Z,0.26
2022-12-04T09:52:24.538Z,0.21
2022-12-04T09:54:52.360Z,0.32
2022-12-04T09:57:28.116Z,0.30
2022-12-04T09:59:55.500Z,0.35
2022-12-04T10:02:38.022Z,0.33
2022-12-04T10:05:07.567Z,0.42
2022-12-04T10:07:53.164Z,0.32
2022-12-04T10:10:28.815Z,0.32
2022-12-04T10:13:14.423Z,0.46
2022-12-04T10:16:10.076Z,0.43
2022-12-04T10:18:51.229Z,0.46
2022-12-04T10:21:32.954Z,0.42
2022-12-04T10:24:18.850Z,0.22
2022-12-04T10:26:50.658Z,0.15
2022-12-04T10:29:26.488Z,0.27
2022-12-04T10:31:55.812Z,0.43
2022-12-04T10:34:27.799Z,0.42
2022-12-04T10:37:00.957Z,0.46
2022-12-04T10:39:42.791Z,0.54
2022-12-04T10:42:16.274Z,0.50
2022-12-04T10:44:43.890Z,0.40
2022-12-04T10:47:12.424Z,0.55
2022-12-04T10:49:40.858Z,0.50
2022-12-04T10:52:13.428Z,0.39
2022-12-04T10:54:51.243Z,0.45
2022-12-04T10:57:19.427Z,0.37
2022-12-04T10:59:57.165Z,0.49
2022-12-04T11:02:30.185Z,0.52
2022-12-04T11:05:21.891Z,0.51
2022-12-04T11:07:55.919Z,0.50
2022-12-04T11:10:43.282Z,0.52
2022-12-04T11:13:13.266Z,0.40
2022-12-04T11:15:45.934Z,0.63
2022-12-04T11:18:23.699Z,0.71
2022-12-04T11:21:05.838Z,0.68
2022-12-04T11:23:35.830Z,0.69
2022-12-04T11:26:05.878Z,0.73
2022-12-04T11:28:41.807Z,0.60
2022-12-04T11:31:11.656Z,0.59
2022-12-04T11:33:45.514Z,0.66
2022-12-04T11:36:22.260Z,0.81
2022-12-04T11:38:51.179Z,0.82
2022-12-04T11:41:30.919Z,0.80
2022-12-04T11:44:00.503Z,0.76
2022-12-04T11:46:34.278Z,0.63
2022-12-04T11:49:03.981Z,0.59
2022-12-04T11:51:53.632Z,0.59
2022-12-04T11:54:20.783Z,0.68
2022-12-04T11:56:54.398Z,0.53
2022-12-04T11:59:47.641Z,0.65
2022-12-04T12:02:38.932Z,0.60
2022-12-04T12:05:45.410Z,0.74
2022-12-04T12:08:33.594Z,0.66
2022-12-04T12:11:20.392Z,0.68
2022-12-04T12:14:06.723Z,0.69
2022-12-04T12:16:51.664Z,0.77
2022-12-04T12:19:34.084Z,0.84
2022-12-04T12:22:15.749Z,0.82
2022-12-04T12:24:55.193Z,0.69
2022-12-04T12:27:32.368Z,0.59
2022-12-04T12:30:21.794Z,0.56
2022-12-04T12:33:17.121Z,0.73
2022-12-04T12:35:44.548Z,0.67
2022-12-04T12:38:25.347Z,0.70
2022-12-04T12:41:11.132Z,0.77
2022-12-04T12:43:39.409Z,0.76
2022-12-04T12:46:35.297Z,0.71
2022-12-04T12:49:20.091Z,0.65
2022-12-04T12:52:05.374Z,0.71
2022-12-04T12:54:41.621Z,0.64
2022-12-04T12:57:22.123Z,0.54
2022-12-04T13:00:05.493Z,0.64
2022-12-04T13:02:47.761Z,0.75
2022-12-04T13:05:19.665Z,0.70
2022-12-04T13:08:05.319Z,0.66
2022-12-04T13:10:38.057Z,0.78
2022-12-04T13:13:18.039Z,0.74
2022-12-04T13:15:49.242Z,0.73
2022-12-04T13:18:28.731Z,0.72
2022-12-04T13:20:58.878Z,0.72
2022-12-04T13:23:40.969Z,0.74
2022-12-04T13:26:29.946Z,0.60
2022-12-04T13:29:04.062Z,0.52
2022-12-04T13:31:54.164Z,0.61
2022-12-04T13:34:39.969Z,0.56
2022-12-04T13:37:18.121Z,0.63
2022-12-04T13:40:05.004Z,0.63
2022-12-04T13:42:32.165Z,0.71
2022-12-04T13:45:03.803Z,0.49
2022-12-04T13:47:33.836Z,0.66
2022-12-04T13:50:08.516Z,0.81
2022-12-04T13:52:41.070Z,0.80
2022-12-04T13:55:32.501Z,0.86
2022-12-04T13:58:02.066Z,0.85
2022-12-04T14:00:36.927Z,0.82
2022-12-04T14:03:33.054Z,0.76
2022-12-04T14:06:05.380Z,0.66
2022-12-04T14:08:38.568Z,0.51
2022-12-04T14:11:09.714Z,0.78
2022-12-04T14:13:43.804Z,0.77
2022-12-04T14:16:23.509Z,0.70
2022-12-04T14:18:54.332Z,0.68
2022-12-04T14:21:21.329Z,0.72
2022-12-04T14:23:48.558Z,0.80
2022-12-04T14:27:10.215Z,0.82
2022-12-04T14:29:33.240Z,0.81
2022-12-04T14:32:00.840Z,0.70
2022-12-04T14:34:32.044Z,0.72
2022-12-04T14:36:59.701Z,0.84
2022-12-04T14:39:29.961Z,0.83
2022-12-04T14:42:18.163Z,0.89
2022-12-04T14:44:46.207Z,0.69
2022-12-04T14:47:27.057Z,0.75
2022-12-04T14:50:10.400Z,0.86
2022-12-04T14:52:48.992Z,0.78
2022-12-04T14:55:32.467Z,0.73
2022-12-04T14:58:21.370Z,0.66
2022-12-04T15:00:53.062Z,0.60
2022-12-04T15:03:20.618Z,0.79
2022-12-04T15:05:47.917Z,0.74
2022-12-04T15:08:15.327Z,0.84
2022-12-04T15:11:07.856Z,0.64
2022-12-04T15:13:40.177Z,0.69
2022-12-04T15:16:19.106Z,0.66
2022-12-04T15:18:57.402Z,0.67
2022-12-04T15:21:37.180Z,0.84
2022-12-04T15:24:14.067Z,0.63
2022-12-04T15:26:41.035Z,0.62
2022-12-04T15:29:09.327Z,0.77
2022-12-04T15:31:53.384Z,0.76
2022-12-04T15:34:22.537Z,0.71
2022-12-04T15:37:02.261Z,0.84
2022-12-04T15:39:30.443Z,0.81
2022-12-04T15:42:29.823Z,0.71
2022-12-04T15:45:01.886Z,0.80
2022-12-04T15:47:29.668Z,0.77
2022-12-04T15:50:16.073Z,0.71
2022-12-04T15:53:06.321Z,0.80
2022-12-04T15:55:50.673Z,0.88
2022-12-04T15:58:32.346Z,0.83
2022-12-04T16:01:05.426Z,0.74
2022-12-04T16:03:41.453Z,0.84
2022-12-04T16:06:28.429Z,0.81
2022-12-04T16:08:57.419Z,0.80
2022-12-04T16:11:32.274Z,0.71
2022-12-04T16:14:03.808Z,0.86
2022-12-04T16:16:30.681Z,0.78
2022-12-04T16:18:57.603Z,0.76
2022-12-04T16:21:30.360Z,0.79
2022-12-04T16:24:07.550Z,0.96
2022-12-04T16:26:34.380Z,0.89
2022-12-04T16:29:01.170Z,0.84
2022-12-04T16:31:28.155Z,0.89
2022-12-04T16:33:54.996Z,0.71
2022-12-04T16:36:21.803Z,0.77
2022-12-04T16:38:48.614Z,0.88
2022-12-04T16:41:17.028Z,0.74
2022-12-04T16:43:44.121Z,0.89
2022-12-04T16:46:16.239Z,0.86
2022-12-04T16:48:43.334Z,0.75
2022-12-04T16:51:16.421Z,0.97
2022-12-04T16:53:43.243Z,0.97
2022-12-04T16:56:10.107Z,0.88
2022-12-04T16:58:36.948Z,0.82
2022-12-04T17:01:04.414Z,0.91
2022-12-04T17:03:33.405Z,0.90
2022-12-04T17:06:01.014Z,0.89
2022-12-04T17:08:28.378Z,0.96
2022-12-04T17:10:55.485Z,0.99
2022-12-04T17:13:22.991Z,0.94
2022-12-04T17:15:49.889Z,1.03
2022-12-04T17:18:21.300Z,1.05
2022-12-04T17:20:48.695Z,0.87
2022-12-04T17:23:15.638Z,0.99
2022-12-04T17:25:42.546Z,0.87
2022-12-04T17:28:09.358Z,0.88
2022-12-04T17:30:36.701Z,0.92
2022-12-04T17:33:05.017Z,0.90
2022-12-04T17:35:32.026Z,0.88
2022-12-04T17:38:05.402Z,1.02
2022-12-04T17:40:39.790Z,1.00
2022-12-04T17:43:06.654Z,1.01
2022-12-04T17:45:33.483Z,1.05
2022-12-04T17:48:00.781Z,1.09
2022-12-04T17:50:27.582Z,0.95
2022-12-04T17:52:54.386Z,1.03
2022-12-04T17:55:21.187Z,0.82
2022-12-04T17:57:48.067Z,0.85
2022-12-04T18:00:15.059Z,0.88
2022-12-04T18:02:42.493Z,0.93
2022-12-04T18:05:09.882Z,1.10
2022-12-04T18:07:36.883Z,0.97
2022-12-04T18:10:04.196Z,1.05
2022-12-04T18:12:31.060Z,1.01
2022-12-04T18:14:57.858Z,1.01
2022-12-04T18:17:24.649Z,1.09
2022-12-04T18:19:51.575Z,0.84
2022-12-04T18:22:18.403Z,0.87
2022-12-04T18:24:45.424Z,1.05
2022-12-04T18:27:12.208Z,1.03
2022-12-04T18:29:39.078Z,0.99
2022-12-04T18:32:05.947Z,1.15
2022-12-04T18:34:32.766Z,0.96
2022-12-04T18:36:59.551Z,1.09
2022-12-04T18:39:26.524Z,1.01
2022-12-04T18:41:57.065Z,1.08
2022-12-04T18:44:24.058Z,0.94
2022-12-04T18:46:50.848Z,0.90
2022-12-04T18:49:17.636Z,1.11
2022-12-04T18:51:49.574Z,1.08
2022-12-04T18:54:22.145Z,1.03
2022-12-04T18:56:49.388Z,1.03
2022-12-04T18:59:21.630Z,0.98
2022-12-04T19:01:50.243Z,1.02
2022-12-04T19:04:19.344Z,0.90
2022-12-04T19:06:48.463Z,0.94
2022-12-04T19:09:17.509Z,0.95
2022-12-04T19:11:44.987Z,1.08
2022-12-04T19:14:20.990Z,1.08
2022-12-04T19:16:50.542Z,1.13
2022-12-04T19:19:17.835Z,1.21
2022-12-04T19:21:44.805Z,0.95
2022-12-04T19:24:12.309Z,1.08
2022-12-04T19:26:39.194Z,1.05
2022-12-04T19:29:07.010Z,0.89
2022-12-04T19:31:36.188Z,1.07
2022-12-04T19:34:03.557Z,1.01
2022-12-04T19:36:31.300Z,1.06
2022-12-04T19:38:58.369Z,1.11
2022-12-04T19:41:27.462Z,1.12
2022-12-04T19:43:59.614Z,1.15
2022-12-04T19:46:28.589Z,1.13
2022-12-04T19:49:01.722Z,1.15
2022-12-04T19:51:32.122Z,1.12
2022-12-04T19:53:59.811Z,1.18
2022-12-04T19:56:27.362Z,1.11
2022-12-04T19:58:57.433Z,1.12
2022-12-04T20:01:26.690Z,1.12
2022-12-04T20:03:53.540Z,1.17
2022-12-04T20:06:22.363Z,1.02
2022-12-04T20:08:55.357Z,1.12
2022-12-04T20:11:22.434Z,1.21
2022-12-04T20:13:49.884Z,1.17
2022-12-04T20:16:18.159Z,0.98
2022-12-04T20:18:45.680Z,1.15
2022-12-04T20:21:13.079Z,1.07
2022-12-04T20:23:41.589Z,1.10
2022-12-04T20:26:10.857Z,1.19
2022-12-04T20:28:37.658Z,1.15
2022-12-04T20:31:34.702Z,1.29
2022-12-04T20:34:03.330Z,1.12
2022-12-04T20:36:31.181Z,1.06
2022-12-04T20:38:59.168Z,1.10
2022-12-04T20:41:30.616Z,1.07
2022-12-04T20:44:04.787Z,1.03
2022-12-04T20:46:36.591Z,1.02
2022-12-04T20:49:06.350Z,1.07
2022-12-04T20:51:40.506Z,1.25
2022-12-04T20:54:08.316Z,1.13
2022-12-04T20:56:36.804Z,1.18
2022-12-04T20:59:09.111Z,1.20
2022-12-04T21:01:39.444Z,1.36
2022-12-04T21:04:06.681Z,1.20
2022-12-04T21:06:39.157Z,1.24
2022-12-04T21:09:13.258Z,1.21
2022-12-04T21:12:00.404Z,1.31
2022-12-04T21:14:48.587Z,1.26
2022-12-04T21:17:19.042Z,1.27
2022-12-04T21:19:47.297Z,1.22
2022-12-04T21:22:15.109Z,1.27
2022-12-04T21:24:42.494Z,1.27
2022-12-04T21:27:12.415Z,1.38
2022-12-04T21:29:43.698Z,1.29
2022-12-04T21:32:10.728Z,1.30
2022-12-04T21:34:37.614Z,1.23
2022-12-04T21:37:04.420Z,1.28
2022-12-04T21:39:31.259Z,1.25
2022-12-04T21:42:16.719Z,1.18
2022-12-04T21:44:43.531Z,1.14
2022-12-04T21:47:13.024Z,1.17
2022-12-04T21:49:39.923Z,1.22
2022-12-04T21:52:06.865Z,1.10
2022-12-04T21:54:33.759Z,1.27
2022-12-04T21:57:00.651Z,1.33
2022-12-04T21:59:27.662Z,1.23
2022-12-04T22:01:54.870Z,1.26
2022-12-04T22:04:22.134Z,1.18
2022-12-04T22:06:49.202Z,1.22
2022-12-04T22:09:16.362Z,1.15
2022-12-04T22:11:43.780Z,1.15
2022-12-04T22:14:11.557Z,1.31
2022-12-04T22:16:42.464Z,1.32
2022-12-04T22:19:11.105Z,1.36
2022-12-04T22:21:38.205Z,1.29
2022-12-04T22:24:05.660Z,1.27
2022-12-04T22:26:32.799Z,1.29
2022-12-04T22:28:59.954Z,1.36
2022-12-04T22:31:28.624Z,1.22
2022-12-04T22:33:57.825Z,1.40
2022-12-04T22:36:27.806Z,1.34
2022-12-04T22:39:11.023Z,1.35
2022-12-04T22:41:38.525Z,1.36
2022-12-04T22:44:05.662Z,1.41
2022-12-04T22:46:32.654Z,1.23
2022-12-04T22:49:00.000Z,1.12
2022-12-04T22:51:27.704Z,1.36
2022-12-04T22:53:56.811Z,1.20
2022-12-04T22:56:29.124Z,1.31
2022-12-04T22:58:57.729Z,1.19
2022-12-04T23:01:34.341Z,1.37
2022-12-04T23:04:02.640Z,1.31
2022-12-04T23:06:31.997Z,1.33
2022-12-04T23:09:04.811Z,1.41
2022-12-04T23:11:31.698Z,1.39
2022-12-04T23:14:01.358Z,1.26
2022-12-04T23:16:29.799Z,1.27
2022-12-04T23:18:56.817Z,1.21
2022-12-04T23:21:24.173Z,1.32
2022-12-04T23:23:52.727Z,1.25
2022-12-04T23:26:21.645Z,1.33
2022-12-04T23:28:50.996Z,1.39
2022-12-04T23:31:18.591Z,1.50
2022-12-04T23:33:45.449Z,1.39
2022-12-04T23:36:13.434Z,1.24
2022-12-04T23:38:41.709Z,1.17
2022-12-04T23:41:12.775Z,1.36
2022-12-04T23:43:41.011Z,1.39
2022-12-04T23:46:11.251Z,1.50
2022-12-04T23:48:44.970Z,1.40
2022-12-04T23:51:13.772Z,1.32
2022-12-04T23:53:41.118Z,1.35
2022-12-04T23:56:11.849Z,1.39
2022-12-04T23:58:40.067Z,1.44
